createdAt,value
2017-07-16T00:00:36.641Z,11.91
2017-07-16T00:03:04.413Z,11.88
2017-07-16T00:05:32.153Z,11.86
2017-07-16T00:07:59.913Z,11.79
2017-07-16T00:10:27.648Z,11.88
2017-07-16T00:12:55.456Z,11.90
2017-07-16T00:15:23.192Z,11.80
2017-07-16T00:17:50.978Z,11.83
2017-07-16T00:20:18.806Z,11.77
2017-07-16T00:22:46.502Z,11.71
2017-07-16T00:25:14.283Z,11.60
2017-07-16T00:27:42.008Z,11.58
2017-07-16T00:30:09.809Z,11.53
2017-07-16T00:32:37.534Z,11.40
2017-07-16T00:35:05.243Z,11.49
2017-07-16T00:37:33.105Z,11.45
2017-07-16T00:40:00.809Z,11.51
2017-07-16T00:42:28.518Z,11.57
2017-07-16T00:44:56.281Z,11.47
2017-07-16T00:47:24.032Z,11.45
2017-07-16T00:49:51.809Z,11.48
2017-07-16T00:52:19.639Z,11.45
2017-07-16T00:54:47.339Z,11.41
2017-07-16T00:57:15.188Z,11.45
2017-07-16T00:59:42.890Z,11.44
2017-07-16T01:02:10.614Z,11.38
2017-07-16T01:04:38.321Z,11.40
2017-07-16T01:07:06.035Z,11.28
2017-07-16T01:12:07.589Z,11.28
2017-07-16T01:14:35.351Z,11.35
2017-07-16T01:17:03.468Z,11.28
2017-07-16T01:19:31.178Z,11.24
2017-07-16T01:21:58.883Z,11.19
2017-07-16T01:24:26.639Z,11.11
2017-07-16T01:26:54.366Z,11.12
2017-07-16T01:29:22.157Z,11.16
2017-07-16T01:31:49.860Z,11.17
2017-07-16T01:34:17.565Z,11.17
2017-07-16T01:36:45.354Z,11.26
2017-07-16T01:39:13.117Z,11.16
2017-07-16T01:41:40.984Z,11.10
2017-07-16T01:44:08.705Z,11.08
2017-07-16T01:46:36.410Z,10.88
2017-07-16T01:49:04.175Z,10.90
2017-07-16T01:51:31.953Z,11.01
2017-07-16T01:53:59.943Z,11.06
2017-07-16T01:56:27.706Z,11.07
2017-07-16T01:58:55.479Z,11.14
2017-07-16T02:01:23.180Z,11.15
2017-07-16T02:03:50.891Z,11.10
2017-07-16T02:06:18.680Z,11.17
2017-07-16T02:08:46.395Z,11.25
2017-07-16T02:11:14.128Z,11.30
2017-07-16T02:13:41.886Z,11.25
2017-07-16T02:16:09.583Z,11.18
2017-07-16T02:18:37.333Z,11.02
2017-07-16T02:21:05.058Z,11.03
2017-07-16T02:23:32.809Z,11.03
2017-07-16T02:26:00.548Z,11.03
2017-07-16T02:28:28.315Z,11.13
2017-07-16T02:30:56.086Z,10.88
2017-07-16T02:33:23.914Z,10.87
2017-07-16T02:35:51.722Z,10.94
2017-07-16T02:38:19.425Z,11.00
2017-07-16T02:40:47.191Z,10.97
2017-07-16T02:43:14.913Z,10.91
2017-07-16T02:45:42.607Z,10.88
2017-07-16T02:48:10.336Z,11.04
2017-07-16T02:50:38.110Z,11.01
2017-07-16T02:53:05.832Z,11.03
2017-07-16T02:55:33.525Z,11.12
2017-07-16T02:58:01.261Z,11.19
2017-07-16T03:00:29.657Z,11.09
2017-07-16T03:02:57.422Z,11.07
2017-07-16T03:05:25.163Z,11.12
2017-07-16T03:07:52.892Z,11.15
2017-07-16T03:10:20.809Z,11.16
2017-07-16T03:12:48.497Z,11.04
2017-07-16T03:15:16.259Z,11.01
2017-07-16T03:17:43.983Z,11.05
2017-07-16T03:20:11.706Z,11.07
2017-07-16T03:22:39.473Z,11.02
2017-07-16T03:25:19.080Z,11.01
2017-07-16T03:27:46.765Z,11.11
2017-07-16T03:30:14.804Z,11.11
2017-07-16T03:32:42.506Z,11.08
2017-07-16T03:35:10.213Z,11.13
2017-07-16T03:37:37.987Z,11.09
2017-07-16T03:40:05.702Z,11.15
2017-07-16T03:42:33.436Z,11.06
2017-07-16T03:45:01.204Z,10.92
2017-07-16T03:47:28.926Z,10.96
2017-07-16T03:49:56.695Z,10.97
2017-07-16T03:52:24.460Z,10.91
2017-07-16T03:54:52.219Z,10.92
2017-07-16T03:57:20.043Z,10.92
2017-07-16T03:59:47.830Z,10.90
2017-07-16T04:02:15.602Z,10.96
2017-07-16T04:04:43.349Z,11.03
2017-07-16T04:07:11.098Z,10.96
2017-07-16T04:09:38.825Z,11.01
2017-07-16T04:12:06.551Z,10.94
2017-07-16T04:14:34.291Z,10.95
2017-07-16T04:17:01.987Z,11.05
2017-07-16T04:19:30.675Z,11.03
2017-07-16T04:21:58.576Z,11.13
2017-07-16T04:24:27.387Z,11.15
2017-07-16T04:26:55.181Z,11.18
2017-07-16T04:29:22.929Z,11.27
2017-07-16T04:31:50.635Z,11.26
2017-07-16T04:34:18.443Z,11.31
2017-07-16T04:36:46.154Z,11.25
2017-07-16T04:39:13.957Z,11.33
2017-07-16T04:41:41.653Z,11.39
2017-07-16T04:44:09.412Z,11.39
2017-07-16T04:46:37.126Z,11.48
2017-07-16T04:49:04.948Z,11.56
2017-07-16T04:51:32.712Z,11.51
2017-07-16T04:54:02.175Z,11.51
2017-07-16T04:56:29.976Z,11.53
2017-07-16T04:58:57.832Z,11.56
2017-07-16T05:01:25.580Z,11.64
2017-07-16T05:03:53.293Z,11.78
2017-07-16T05:06:21.070Z,11.74
2017-07-16T05:08:48.820Z,11.77
2017-07-16T05:11:16.585Z,11.75
2017-07-16T05:13:44.321Z,11.78
2017-07-16T05:16:12.037Z,11.88
2017-07-16T05:18:39.777Z,12.01
2017-07-16T05:21:07.448Z,12.01
2017-07-16T05:23:35.201Z,12.03
2017-07-16T05:26:02.950Z,12.08
2017-07-16T05:28:30.680Z,12.20
2017-07-16T05:30:58.425Z,12.14
2017-07-16T05:33:26.213Z,12.11
2017-07-16T05:35:54.011Z,12.18
2017-07-16T05:38:21.759Z,12.28
2017-07-16T05:40:49.483Z,12.35
2017-07-16T05:43:17.298Z,12.46
2017-07-16T05:45:45.779Z,12.58
2017-07-16T05:48:13.516Z,12.60
2017-07-16T05:50:41.263Z,12.60
2017-07-16T05:53:09.731Z,12.77
2017-07-16T05:55:37.514Z,12.82
2017-07-16T05:58:05.279Z,12.94
2017-07-16T06:00:33.010Z,12.98
2017-07-16T06:03:00.795Z,13.08
2017-07-16T06:05:28.570Z,13.13
2017-07-16T06:07:56.372Z,12.98
2017-07-16T06:10:24.085Z,13.00
2017-07-16T06:12:51.793Z,13.08
2017-07-16T06:15:19.549Z,13.15
2017-07-16T06:17:47.261Z,13.15
2017-07-16T06:20:15.022Z,13.25
2017-07-16T06:22:42.758Z,13.37
2017-07-16T06:25:10.485Z,13.30
2017-07-16T06:27:38.234Z,13.23
2017-07-16T06:30:05.947Z,13.47
2017-07-16T06:32:33.749Z,13.64
2017-07-16T06:35:01.483Z,13.75
2017-07-16T06:37:29.227Z,13.72
2017-07-16T06:39:56.977Z,13.63
2017-07-16T06:42:24.955Z,13.81
2017-07-16T06:44:52.685Z,13.85
2017-07-16T06:47:20.437Z,14.01
2017-07-16T06:49:48.194Z,14.16
2017-07-16T06:52:15.953Z,14.21
2017-07-16T06:54:43.664Z,14.32
2017-07-16T06:57:11.461Z,14.53
2017-07-16T06:59:39.234Z,14.46
2017-07-16T07:02:06.940Z,14.62
2017-07-16T07:04:34.733Z,14.67
2017-07-16T07:07:02.549Z,14.66
2017-07-16T07:09:30.342Z,14.96
2017-07-16T07:11:58.060Z,15.38
2017-07-16T07:14:25.849Z,15.67
2017-07-16T07:16:53.626Z,15.87
2017-07-16T07:19:21.590Z,16.11
2017-07-16T07:21:49.376Z,15.82
2017-07-16T07:24:17.150Z,16.05
2017-07-16T07:26:44.987Z,16.63
2017-07-16T07:29:12.764Z,17.16
2017-07-16T07:31:40.493Z,16.94
2017-07-16T07:34:08.453Z,16.68
2017-07-16T07:36:36.215Z,16.84
2017-07-16T07:39:04.059Z,17.00
2017-07-16T07:41:31.874Z,17.01
2017-07-16T07:43:59.645Z,17.48
2017-07-16T07:46:27.609Z,17.95
2017-07-16T07:48:55.386Z,17.97
2017-07-16T07:51:23.119Z,17.90
2017-07-16T07:53:50.936Z,17.08
2017-07-16T07:56:18.698Z,17.43
2017-07-16T07:58:46.468Z,17.26
2017-07-16T08:01:14.242Z,17.56
2017-07-16T08:03:41.990Z,18.04
2017-07-16T08:06:09.798Z,18.04
2017-07-16T08:08:37.837Z,17.89
2017-07-16T08:11:05.596Z,18.05
2017-07-16T08:13:33.364Z,18.14
2017-07-16T08:16:01.387Z,17.76
2017-07-16T08:18:29.219Z,17.79
2017-07-16T08:20:57.583Z,18.53
2017-07-16T08:23:25.395Z,18.82
2017-07-16T08:25:53.117Z,18.78
2017-07-16T08:28:20.879Z,18.67
2017-07-16T08:30:48.651Z,19.38
2017-07-16T08:33:16.453Z,19.67
2017-07-16T08:35:44.309Z,19.54
2017-07-16T08:38:12.070Z,20.14
2017-07-16T08:40:39.874Z,20.57
2017-07-16T08:43:07.633Z,20.81
2017-07-16T08:45:35.524Z,20.45
2017-07-16T08:48:03.253Z,20.35
2017-07-16T08:50:30.983Z,20.38
2017-07-16T08:52:58.789Z,19.58
2017-07-16T08:55:26.581Z,19.53
2017-07-16T08:57:54.301Z,19.18
2017-07-16T09:00:22.041Z,18.76
2017-07-16T09:02:49.813Z,18.45
2017-07-16T09:05:17.566Z,18.39
2017-07-16T09:07:45.345Z,18.48
2017-07-16T09:10:13.136Z,18.42
2017-07-16T09:12:40.886Z,18.61
2017-07-16T09:15:08.663Z,18.33
2017-07-16T09:17:36.462Z,17.99
2017-07-16T09:20:04.384Z,18.18
2017-07-16T09:22:32.199Z,18.23
2017-07-16T09:25:00.003Z,18.33
2017-07-16T09:27:27.740Z,18.25
2017-07-16T09:29:55.451Z,18.04
2017-07-16T09:32:23.245Z,18.41
2017-07-16T09:34:51.071Z,18.33
2017-07-16T09:37:18.769Z,18.40
2017-07-16T09:39:46.463Z,18.28
2017-07-16T09:42:14.216Z,18.48
2017-07-16T09:44:41.984Z,18.32
2017-07-16T09:47:09.837Z,17.88
2017-07-16T09:49:37.540Z,17.95
2017-07-16T09:52:05.297Z,18.01
2017-07-16T09:54:33.063Z,17.63
2017-07-16T09:57:00.798Z,17.94
2017-07-16T09:59:28.575Z,18.18
2017-07-16T10:01:56.296Z,18.26
2017-07-16T10:04:24.102Z,18.42
2017-07-16T10:06:51.824Z,18.52
2017-07-16T10:09:19.577Z,18.55
2017-07-16T10:11:47.356Z,18.52
2017-07-16T10:14:15.106Z,18.51
2017-07-16T10:16:42.868Z,18.27
2017-07-16T10:19:10.650Z,18.24
2017-07-16T10:21:39.327Z,18.16
2017-07-16T10:24:07.095Z,18.35
2017-07-16T10:26:34.888Z,18.31
2017-07-16T10:29:02.612Z,18.06
2017-07-16T10:31:30.387Z,17.94
2017-07-16T10:33:58.165Z,17.91
2017-07-16T10:36:25.914Z,17.88
2017-07-16T10:38:53.685Z,18.03
2017-07-16T10:41:21.530Z,18.05
2017-07-16T10:43:49.341Z,18.13
2017-07-16T10:46:17.041Z,18.41
2017-07-16T10:48:44.994Z,18.46
2017-07-16T10:51:12.782Z,18.46
2017-07-16T10:53:40.521Z,18.47
2017-07-16T10:56:08.316Z,18.91
2017-07-16T10:58:36.166Z,18.98
2017-07-16T11:01:03.955Z,19.00
2017-07-16T11:03:31.763Z,19.13
2017-07-16T11:06:00.118Z,19.59
2017-07-16T11:08:28.932Z,19.29
2017-07-16T11:10:58.330Z,19.28
2017-07-16T11:13:26.156Z,19.34
2017-07-16T11:15:54.047Z,19.17
2017-07-16T11:18:21.857Z,19.11
2017-07-16T11:20:50.870Z,18.76
2017-07-16T11:23:18.613Z,18.96
2017-07-16T11:25:46.428Z,18.77
2017-07-16T11:28:14.279Z,18.73
2017-07-16T11:30:42.054Z,18.77
2017-07-16T11:33:09.830Z,18.53
2017-07-16T11:35:37.595Z,18.58
2017-07-16T11:38:05.357Z,18.68
2017-07-16T11:40:33.108Z,18.58
2017-07-16T11:43:00.899Z,18.55
2017-07-16T11:45:28.705Z,18.56
2017-07-16T11:47:56.607Z,18.61
2017-07-16T11:50:24.381Z,18.66
2017-07-16T11:52:52.113Z,18.86
2017-07-16T11:55:19.884Z,18.98
2017-07-16T11:57:47.696Z,18.96
2017-07-16T12:00:15.448Z,19.16
2017-07-16T12:02:43.247Z,19.05
2017-07-16T12:05:11.026Z,19.20
2017-07-16T12:07:38.838Z,19.44
2017-07-16T12:10:06.609Z,19.56
2017-07-16T12:12:34.387Z,19.46
2017-07-16T12:15:02.187Z,19.40
2017-07-16T12:17:29.966Z,19.30
2017-07-16T12:19:57.709Z,19.48
2017-07-16T12:22:25.507Z,19.29
2017-07-16T12:24:53.293Z,19.67
2017-07-16T12:27:21.078Z,19.73
2017-07-16T12:29:48.825Z,19.23
2017-07-16T12:32:16.666Z,19.88
2017-07-16T12:34:45.234Z,20.00
2017-07-16T12:37:12.961Z,20.44
2017-07-16T12:39:40.793Z,20.94
2017-07-16T12:42:08.543Z,20.74
2017-07-16T12:44:37.385Z,20.81
2017-07-16T12:47:05.143Z,20.49
2017-07-16T12:49:32.875Z,20.81
2017-07-16T12:52:00.751Z,20.27
2017-07-16T12:54:28.476Z,20.42
2017-07-16T12:56:56.176Z,19.76
2017-07-16T12:59:24.378Z,19.95
2017-07-16T13:01:52.115Z,19.46
2017-07-16T13:04:19.834Z,19.77
2017-07-16T13:06:47.603Z,20.06
2017-07-16T13:09:15.316Z,20.36
2017-07-16T13:11:43.096Z,20.16
2017-07-16T13:14:10.865Z,20.33
2017-07-16T13:16:38.614Z,20.79
2017-07-16T13:19:06.314Z,20.36
2017-07-16T13:21:34.080Z,20.94
2017-07-16T13:24:01.819Z,20.75
2017-07-16T13:26:29.570Z,20.63
2017-07-16T13:28:57.365Z,20.38
2017-07-16T13:31:25.107Z,20.43
2017-07-16T13:33:52.975Z,20.40
2017-07-16T13:36:20.826Z,20.34
2017-07-16T13:38:48.561Z,20.22
2017-07-16T13:41:16.378Z,20.05
2017-07-16T13:43:44.196Z,19.97
2017-07-16T13:46:11.930Z,19.90
2017-07-16T13:48:39.720Z,19.85
2017-07-16T13:51:07.579Z,20.01
2017-07-16T13:53:35.370Z,20.02
2017-07-16T13:56:03.146Z,20.15
2017-07-16T13:58:31.026Z,20.27
2017-07-16T14:00:58.814Z,20.37
2017-07-16T14:03:26.518Z,20.29
2017-07-16T14:05:54.297Z,19.96
2017-07-16T14:08:22.103Z,20.29
2017-07-16T14:10:49.862Z,21.04
2017-07-16T14:13:17.637Z,21.29
2017-07-16T14:15:45.397Z,21.38
2017-07-16T14:18:13.281Z,20.90
2017-07-16T14:20:41.088Z,21.01
2017-07-16T14:23:08.892Z,21.08
2017-07-16T14:25:36.698Z,21.13
2017-07-16T14:28:04.462Z,21.04
2017-07-16T14:30:32.255Z,20.68
2017-07-16T14:33:00.089Z,20.69
2017-07-16T14:35:27.804Z,20.39
2017-07-16T14:37:55.586Z,20.85
2017-07-16T14:40:24.190Z,21.09
2017-07-16T14:42:51.935Z,21.61
2017-07-16T14:45:19.742Z,21.44
2017-07-16T14:47:47.512Z,21.28
2017-07-16T14:50:15.235Z,20.92
2017-07-16T14:52:42.984Z,20.87
2017-07-16T14:55:10.758Z,21.22
2017-07-16T14:57:38.570Z,21.51
2017-07-16T15:00:06.398Z,21.62
2017-07-16T15:02:34.198Z,22.00
2017-07-16T15:05:02.030Z,21.92
2017-07-16T15:07:29.815Z,21.85
2017-07-16T15:09:57.585Z,21.61
2017-07-16T15:12:25.355Z,21.29
2017-07-16T15:14:53.193Z,21.11
2017-07-16T15:17:20.996Z,20.92
2017-07-16T15:19:48.757Z,20.67
2017-07-16T15:22:16.565Z,20.61
2017-07-16T15:24:44.313Z,20.59
2017-07-16T15:27:12.086Z,20.49
2017-07-16T15:29:39.859Z,20.52
2017-07-16T15:32:07.719Z,20.47
2017-07-16T15:34:35.611Z,20.39
2017-07-16T15:37:04.362Z,20.31
2017-07-16T15:39:32.163Z,20.31
2017-07-16T15:42:00.221Z,20.27
2017-07-16T15:44:28.094Z,20.31
2017-07-16T15:46:55.826Z,20.33
2017-07-16T15:49:23.550Z,20.33
2017-07-16T15:51:51.338Z,20.11
2017-07-16T15:54:19.747Z,20.07
2017-07-16T15:56:47.524Z,20.07
2017-07-16T15:59:15.570Z,20.04
2017-07-16T16:01:43.602Z,19.90
2017-07-16T16:04:12.564Z,19.90
2017-07-16T16:06:40.450Z,19.81
2017-07-16T16:09:08.220Z,19.75
2017-07-16T16:11:36.003Z,19.74
2017-07-16T16:14:03.783Z,19.72
2017-07-16T16:16:31.618Z,19.71
2017-07-16T16:18:59.356Z,19.68
2017-07-16T16:21:27.162Z,19.65
2017-07-16T16:23:55.105Z,19.51
2017-07-16T16:26:22.893Z,19.50
2017-07-16T16:28:51.926Z,19.49
2017-07-16T16:31:19.760Z,19.41
2017-07-16T16:33:47.469Z,19.35
2017-07-16T16:36:15.254Z,19.28
2017-07-16T16:38:44.188Z,19.27
2017-07-16T16:41:11.946Z,19.28
2017-07-16T16:43:39.896Z,19.08
2017-07-16T16:46:07.627Z,19.08
2017-07-16T16:48:35.416Z,18.90
2017-07-16T16:51:03.216Z,18.94
2017-07-16T16:53:32.225Z,18.95
2017-07-16T16:56:00.026Z,18.86
2017-07-16T16:58:27.835Z,18.80
2017-07-16T17:00:55.595Z,18.82
2017-07-16T17:03:23.392Z,18.76
2017-07-16T17:05:51.237Z,18.73
2017-07-16T17:08:19.000Z,18.70
2017-07-16T17:10:46.792Z,18.46
2017-07-16T17:13:14.513Z,18.47
2017-07-16T17:15:42.292Z,18.46
2017-07-16T17:18:10.032Z,18.60
2017-07-16T17:20:37.814Z,18.41
2017-07-16T17:23:05.590Z,18.29
2017-07-16T17:25:33.309Z,18.25
2017-07-16T17:28:01.137Z,18.14
2017-07-16T17:30:29.120Z,18.08
2017-07-16T17:32:57.188Z,17.90
2017-07-16T17:35:25.133Z,17.83
2017-07-16T17:37:52.867Z,17.71
2017-07-16T17:40:20.621Z,17.66
2017-07-16T17:42:48.451Z,17.60
2017-07-16T17:45:16.296Z,17.58
2017-07-16T17:47:44.065Z,17.55
2017-07-16T17:50:11.976Z,17.49
2017-07-16T17:52:40.744Z,17.34
2017-07-16T17:55:09.562Z,17.33
2017-07-16T17:57:37.376Z,17.21
2017-07-16T18:00:05.345Z,17.04
2017-07-16T18:02:33.177Z,16.99
2017-07-16T18:05:00.895Z,16.93
2017-07-16T18:07:28.732Z,16.96
2017-07-16T18:09:56.502Z,16.96
2017-07-16T18:12:24.275Z,16.96
2017-07-16T18:14:52.025Z,16.80
2017-07-16T18:17:19.932Z,16.85
2017-07-16T18:19:47.828Z,16.75
2017-07-16T18:22:16.823Z,16.68
2017-07-16T18:24:44.566Z,16.68
2017-07-16T18:27:12.337Z,16.55
2017-07-16T18:29:40.149Z,16.51
2017-07-16T18:32:07.971Z,16.36
2017-07-16T18:34:35.800Z,16.25
2017-07-16T18:37:03.628Z,16.16
2017-07-16T18:39:32.159Z,16.11
2017-07-16T18:41:59.911Z,16.00
2017-07-16T18:44:27.734Z,16.01
2017-07-16T18:46:55.583Z,16.05
2017-07-16T18:49:23.394Z,16.10
2017-07-16T18:51:51.234Z,16.08
2017-07-16T18:54:19.052Z,16.00
2017-07-16T18:56:46.801Z,16.04
2017-07-16T18:59:14.625Z,16.02
2017-07-16T19:01:42.437Z,15.99
2017-07-16T19:04:10.260Z,15.78
2017-07-16T19:06:38.441Z,15.78
2017-07-16T19:09:06.303Z,15.70
2017-07-16T19:11:34.105Z,15.62
2017-07-16T19:14:02.061Z,15.55
2017-07-16T19:16:29.887Z,15.51
2017-07-16T19:18:57.780Z,15.50
2017-07-16T19:21:25.617Z,15.51
2017-07-16T19:23:53.365Z,15.43
2017-07-16T19:26:21.097Z,15.40
2017-07-16T19:28:49.439Z,15.31
2017-07-16T19:31:18.171Z,15.35
2017-07-16T19:33:45.995Z,15.11
2017-07-16T19:36:13.831Z,15.20
2017-07-16T19:38:41.664Z,15.29
2017-07-16T19:41:09.375Z,15.24
2017-07-16T19:43:37.233Z,15.16
2017-07-16T19:46:06.006Z,15.04
2017-07-16T19:48:33.761Z,15.11
2017-07-16T19:51:01.803Z,14.91
2017-07-16T19:53:29.599Z,14.88
2017-07-16T19:55:57.483Z,15.15
2017-07-16T19:58:25.760Z,15.12
2017-07-16T20:00:53.505Z,15.22
2017-07-16T20:03:22.568Z,15.03
2017-07-16T20:05:50.317Z,14.96
2017-07-16T20:08:18.087Z,14.80
2017-07-16T20:10:45.902Z,14.69
2017-07-16T20:13:13.624Z,14.54
2017-07-16T20:15:41.466Z,14.51
2017-07-16T20:18:09.233Z,14.45
2017-07-16T20:20:36.965Z,14.50
2017-07-16T20:23:04.807Z,14.64
2017-07-16T20:25:32.603Z,14.43
2017-07-16T20:28:00.432Z,14.57
2017-07-16T20:30:29.888Z,14.54
2017-07-16T20:32:58.147Z,14.49
2017-07-16T20:35:25.919Z,14.16
2017-07-16T20:37:53.797Z,14.31
2017-07-16T20:40:21.553Z,14.37
2017-07-16T20:42:50.299Z,14.32
2017-07-16T20:45:18.092Z,14.29
2017-07-16T20:47:45.880Z,14.31
2017-07-16T20:50:13.674Z,14.13
2017-07-16T20:52:41.427Z,14.14
2017-07-16T20:55:09.197Z,14.16
2017-07-16T20:57:37.045Z,14.16
2017-07-16T21:00:05.862Z,13.92
2017-07-16T21:02:33.638Z,14.12
2017-07-16T21:05:01.419Z,14.06
2017-07-16T21:07:29.137Z,13.96
2017-07-16T21:09:56.955Z,13.80
2017-07-16T21:12:25.075Z,13.84
2017-07-16T21:14:52.783Z,13.66
2017-07-16T21:17:20.589Z,13.68
2017-07-16T21:19:48.361Z,13.80
2017-07-16T21:22:16.200Z,13.85
2017-07-16T21:24:44.956Z,13.76
2017-07-16T21:27:12.660Z,13.68
2017-07-16T21:29:40.440Z,13.72
2017-07-16T21:32:08.137Z,13.62
2017-07-16T21:34:35.885Z,13.63
2017-07-16T21:37:03.737Z,13.54
2017-07-16T21:39:31.484Z,13.52
2017-07-16T21:41:59.195Z,13.55
2017-07-16T21:44:27.049Z,13.61
2017-07-16T21:46:54.919Z,13.62
2017-07-16T21:49:22.746Z,13.49
2017-07-16T21:51:50.483Z,13.41
2017-07-16T21:54:18.202Z,13.36
2017-07-16T21:56:45.987Z,13.35
2017-07-16T21:59:13.775Z,13.34
2017-07-16T22:01:41.520Z,13.19
2017-07-16T22:04:09.485Z,13.24
2017-07-16T22:06:37.455Z,13.25
2017-07-16T22:09:05.294Z,13.07
2017-07-16T22:11:33.018Z,12.97
2017-07-16T22:14:00.720Z,13.06
2017-07-16T22:16:28.472Z,13.11
2017-07-16T22:18:56.254Z,12.93
2017-07-16T22:21:24.010Z,13.05
2017-07-16T22:23:51.727Z,13.07
2017-07-16T22:26:19.479Z,12.97
2017-07-16T22:28:47.208Z,12.76
2017-07-16T22:31:15.035Z,12.72
2017-07-16T22:33:42.863Z,12.59
2017-07-16T22:36:10.617Z,12.70
2017-07-16T22:38:38.406Z,12.64
2017-07-16T22:41:06.149Z,12.56
2017-07-16T22:43:33.910Z,12.65
2017-07-16T22:46:01.621Z,12.65
2017-07-16T22:48:29.412Z,12.63
2017-07-16T22:50:57.123Z,12.52
2017-07-16T22:53:24.903Z,12.48
2017-07-16T22:55:52.659Z,12.46
2017-07-16T22:58:20.468Z,12.51
2017-07-16T23:00:48.183Z,12.54
2017-07-16T23:03:16.029Z,12.50
2017-07-16T23:05:43.790Z,12.33
2017-07-16T23:08:11.523Z,12.22
2017-07-16T23:10:39.302Z,12.25
2017-07-16T23:13:07.087Z,12.16
2017-07-16T23:15:34.799Z,12.26
2017-07-16T23:18:02.603Z,12.12
2017-07-16T23:20:30.844Z,12.17
2017-07-16T23:22:58.619Z,12.16
2017-07-16T23:25:26.441Z,12.02
2017-07-16T23:27:54.261Z,11.81
2017-07-16T23:30:21.987Z,11.97
2017-07-16T23:32:49.790Z,11.90
2017-07-16T23:35:17.627Z,11.97
2017-07-16T23:37:45.332Z,11.84
2017-07-16T23:40:13.095Z,11.73
2017-07-16T23:42:40.971Z,11.75
2017-07-16T23:45:08.847Z,11.65
2017-07-16T23:47:36.576Z,11.68
2017-07-16T23:50:04.327Z,11.70
2017-07-16T23:52:32.111Z,11.71
2017-07-16T23:54:59.848Z,11.48
2017-07-16T23:57:27.570Z,11.57
2017-07-16T23:59:55.397Z,11.59
